Impacts TAF Board
For situational awareness. Not to be used for flight planning purposes.
IDs:

KCLM - Port Angeles Intl, WA, US

Issued at 0528 UTC 22 Oct 2021
Updated at 0708 UTC 22 Oct 2021
Potential Impact None Slight Moderate High
Time0653Z 22/08Z 22/09Z 22/10Z 22/11Z 22/12Z 22/13Z 22/14Z 22/15Z 22/16Z 22/17Z 22/18Z 22/19Z 22/20Z>>
Type OBS PRVL PRVL PRVL PRVL PRVL PRVL PRVL PRVL PRVL PRVL PRVL PRVL PRVL
VIS 10 >6 >6 >6 >6 >6 >6 >6 >6 >6 >6 >6 >6 >6
CIG 65 60 60 60 60 18 18 18 18 18 18 18 25 25
Cover BKN OVC OVC OVC OVC OVC OVC OVC OVC OVC OVC OVC OVC OVC
FltCat VFR VFR VFR VFR VFR MVFR MVFR MVFR MVFR MVFR MVFR MVFR MVFR MVFR
WX -- -SHRA -SHRA -SHRA -SHRA -SHRA -SHRA -SHRA -SHRA -SHRA -SHRA -SHRA -SHRA -SHRA
WDir VRB 290 290 290 290 250 250 250 250 250 250 250 310 310
WSpd 0 6 6 6 6 3 3 3 3 3 3 3 6 6
WGst -- -- -- -- -- -- -- -- -- -- -- -- -- --
Raw TAF
KCLM 220528Z 2206/2306 29006KT P6SM -SHRA OVC060
  FM221200 25003KT P6SM -SHRA BKN018 OVC030
  FM221900 31006KT P6SM -SHRA BKN025 OVC040
  FM230300 26006KT P6SM VCSH BKN060


Raw METAR
KCLM 220653Z AUTO 00000KT 10SM FEW006 BKN065 11/10 A2972 RMK AO2 SLP063 T01060100
KCLM 220553Z AUTO 29007KT 10SM SCT100 12/10 A2972 RMK AO2 RAE18 SLP064 P0001 60010 T01170100 10128 20117 53011
KCLM 220453Z AUTO 28007KT 5SM -RA BR OVC060 12/11 A2970 RMK AO2 SLP058 P0004 T01220106

METAR Board
Radar Display
Forecast Discussion
For situational awareness. Not to be used for flight planning purposes.